Time;durP1;ratioP1;P1;durP2;ratioP2;P2;SDS_P1;SDS_P2;PMS_P1;PMS_P2;Temp;Humidity;BMP_temperature;BMP_pressure;BME280_temperature;BME280_humidity;BME280_pressure;Samples;Min_cycle;Max_cycle;Signal;HPM_P1;HPM_P2
2021/04/05 00:00:28;;;;;;;44.13;21.00;;;;;;;3.73;77.27;101214.00;5132724;27;20058;-64
2021/04/05 00:02:55;;;;;;;41.28;18.60;;;;;;;3.73;77.08;101203.53;5132366;27;20030;-65
2021/04/05 00:05:26;;;;;;;41.15;19.70;;;;;;;3.73;77.22;101201.81;5132351;27;20430;-64
2021/04/05 00:07:52;;;;;;;44.75;21.33;;;;;;;3.73;77.68;101207.06;5132826;27;20083;-64
2021/04/05 00:10:22;;;;;;;42.90;20.27;;;;;;;3.67;78.00;101207.72;5132852;27;20435;-65
2021/04/05 00:12:48;;;;;;;43.55;20.13;;;;;;;3.68;77.84;101187.66;5131480;27;20031;-64
2021/04/05 00:15:14;;;;;;;44.20;18.60;;;;;;;3.75;77.59;101184.47;5131345;27;20505;-64
2021/04/05 00:17:41;;;;;;;43.90;20.17;;;;;;;3.71;77.69;101182.56;5131090;27;20027;-64
2021/04/05 00:20:15;;;;;;;40.95;18.90;;;;;;;3.72;77.66;101178.22;5132496;27;20027;-65
2021/04/05 00:22:43;;;;;;;41.13;19.00;;;;;;;3.70;78.05;101178.19;5132408;27;20523;-63
2021/04/05 00:25:09;;;;;;;44.65;20.38;;;;;;;3.73;77.60;101164.31;5131908;27;20031;-66
2021/04/05 00:27:36;;;;;;;41.42;19.60;;;;;;;3.72;78.06;101152.09;5132399;27;20027;-67
2021/04/05 00:30:08;;;;;;;41.10;20.17;;;;;;;3.72;77.46;101137.28;5131897;27;20462;-67
2021/04/05 00:32:33;;;;;;;40.83;17.02;;;;;;;3.82;77.11;101131.53;5132216;27;20031;-67
2021/04/05 00:34:58;;;;;;;42.47;17.88;;;;;;;3.77;77.26;101129.59;5132212;27;20076;-68
2021/04/05 00:37:24;;;;;;;39.75;18.00;;;;;;;3.78;77.23;101121.78;5132278;27;20099;-67
2021/04/05 00:39:49;;;;;;;40.58;17.65;;;;;;;3.78;76.83;101121.78;5132030;27;20027;-67
2021/04/05 00:42:16;;;;;;;43.63;18.48;;;;;;;3.80;76.51;101114.91;5131853;27;20038;-67
2021/04/05 00:44:42;;;;;;;40.22;18.13;;;;;;;3.83;76.49;101111.53;5132526;27;20023;-67
2021/04/05 00:47:08;;;;;;;43.00;18.00;;;;;;;3.78;76.78;101106.09;5131709;27;20156;-67
2021/04/05 00:49:34;;;;;;;43.88;20.13;;;;;;;3.77;77.37;101098.22;5132157;27;20035;-67
2021/04/05 00:51:59;;;;;;;42.70;18.42;;;;;;;3.74;77.69;101099.00;5132093;27;20027;-67
2021/04/05 00:54:25;;;;;;;35.80;15.02;;;;;;;3.72;77.29;101095.44;5131506;27;20389;-67
2021/04/05 00:56:50;;;;;;;42.63;19.45;;;;;;;3.71;78.02;101091.03;5132010;27;20023;-67
2021/04/05 00:59:16;;;;;;;42.88;18.85;;;;;;;3.79;77.50;101080.88;5131898;27;20015;-67
2021/04/05 01:01:42;;;;;;;42.38;18.85;;;;;;;3.78;77.55;101079.06;5132205;27;20021;-67
2021/04/05 01:04:07;;;;;;;37.95;16.38;;;;;;;3.87;77.15;101084.63;5132081;27;20126;-67
2021/04/05 01:06:35;;;;;;;41.55;18.13;;;;;;;3.89;77.40;101072.50;5130569;28;20327;-65
2021/04/05 01:09:04;;;;;;;41.63;18.38;;;;;;;3.82;77.70;101052.19;5131738;27;20051;-67
2021/04/05 01:11:31;;;;;;;40.70;18.58;;;;;;;3.79;77.53;101059.94;5131770;28;20026;-67
2021/04/05 01:13:57;;;;;;;41.75;18.20;;;;;;;3.82;77.77;101058.31;5132070;27;20015;-67
2021/04/05 01:16:25;;;;;;;41.30;19.60;;;;;;;3.78;77.55;101048.56;5131416;27;20031;-67
2021/04/05 01:18:51;;;;;;;38.58;17.48;;;;;;;3.73;78.00;101039.69;5131324;27;20023;-67
2021/04/05 01:21:17;;;;;;;41.08;18.60;;;;;;;3.80;77.23;101044.31;5130821;27;20481;-67
2021/04/05 01:23:42;;;;;;;42.05;18.02;;;;;;;3.78;77.64;101037.22;5131866;27;20388;-67
2021/04/05 01:26:08;;;;;;;43.35;19.08;;;;;;;3.81;77.19;101026.88;5131534;27;20408;-69
2021/04/05 01:28:33;;;;;;;41.85;18.55;;;;;;;3.78;77.56;101034.63;5131563;27;20031;-67
2021/04/05 01:31:00;;;;;;;44.42;19.00;;;;;;;3.76;77.72;101034.56;5135916;27;20072;-67
2021/04/05 01:33:30;;;;;;;41.60;18.52;;;;;;;3.76;78.19;101028.47;5135497;27;20019;-67
2021/04/05 01:35:59;;;;;;;41.80;16.85;;;;;;;3.75;77.74;101011.84;5135593;27;20477;-67
2021/04/05 01:38:39;;;;;;;43.17;19.55;;;;;;;3.75;77.99;101026.66;5132073;27;20090;-67
2021/04/05 01:41:08;;;;;;;43.45;18.35;;;;;;;3.72;78.40;101022.22;5131555;27;20031;-67
2021/04/05 01:43:34;;;;;;;41.28;19.00;;;;;;;3.73;78.73;101013.53;5135660;27;20393;-67
2021/04/05 01:46:01;;;;;;;39.92;18.67;;;;;;;3.83;78.26;101013.03;5133784;27;20027;-67
2021/04/05 01:48:29;;;;;;;43.05;18.38;;;;;;;3.88;77.84;101004.44;5135264;27;20152;-67
2021/04/05 01:51:05;;;;;;;38.35;18.55;;;;;;;3.96;77.60;101011.72;5135015;27;20474;-68
2021/04/05 01:53:32;;;;;;;42.65;17.95;;;;;;;3.91;77.88;101004.56;5135245;27;20034;-67
2021/04/05 01:55:58;;;;;;;39.97;16.85;;;;;;;3.98;77.51;100998.69;5135285;27;20042;-68
2021/04/05 01:58:24;;;;;;;38.92;17.75;;;;;;;3.94;78.12;100975.88;5135630;27;20059;-67
2021/04/05 02:00:50;;;;;;;40.58;17.48;;;;;;;3.91;77.89;100967.94;5135136;27;20119;-67
2021/04/05 02:03:15;;;;;;;39.53;16.83;;;;;;;3.93;77.90;100968.84;5135210;27;20069;-67
2021/04/05 02:05:49;;;;;;;40.60;17.95;;;;;;;3.99;77.39;100959.50;5135205;27;20019;-67
2021/04/05 02:08:24;;;;;;;40.95;17.83;;;;;;;3.92;77.81;100951.41;5135009;27;20039;-67
2021/04/05 02:10:52;;;;;;;41.85;17.92;;;;;;;3.90;78.30;100951.31;5135171;27;20377;-67
2021/04/05 02:13:21;;;;;;;41.55;17.30;;;;;;;3.93;78.59;100943.63;5134655;27;20061;-67
2021/04/05 02:15:51;;;;;;;39.63;15.75;;;;;;;3.90;78.63;100943.47;5134081;27;20571;-67
2021/04/05 02:18:16;;;;;;;40.38;17.88;;;;;;;3.89;78.71;100952.19;5132447;27;20067;-67
2021/04/05 02:20:46;;;;;;;40.17;17.75;;;;;;;3.92;79.14;100946.19;5134262;27;21209;-67
2021/04/05 02:23:13;;;;;;;41.63;18.63;;;;;;;3.87;79.59;100947.75;5135179;27;20473;-67
2021/04/05 02:28:26;;;;;;;39.38;16.73;;;;;;;3.82;80.50;100935.38;5089787;28;20035;-67
2021/04/05 02:30:52;;;;;;;44.58;17.75;;;;;;;3.87;80.64;100935.53;5088423;28;20103;-67
2021/04/05 02:33:18;;;;;;;42.28;17.77;;;;;;;3.96;80.49;100937.56;5090452;28;20036;-67
2021/04/05 02:35:43;;;;;;;40.58;16.58;;;;;;;4.00;80.71;100931.59;5091378;28;20533;-67
2021/04/05 02:38:09;;;;;;;42.58;18.27;;;;;;;4.03;80.66;100925.59;5091504;28;20043;-64
2021/04/05 02:40:35;;;;;;;46.63;18.90;;;;;;;4.02;80.63;100922.09;5090370;28;20043;-66
2021/04/05 02:43:01;;;;;;;40.17;18.92;;;;;;;4.06;80.55;100917.84;5090505;28;20024;-67
2021/04/05 02:45:27;;;;;;;42.00;17.77;;;;;;;3.99;81.30;100911.50;5091016;28;20066;-66
2021/04/05 02:47:56;;;;;;;42.78;15.98;;;;;;;3.93;81.40;100896.53;5091143;28;20383;-67
2021/04/05 02:50:25;;;;;;;43.83;18.80;;;;;;;3.88;82.23;100895.47;5090878;28;20156;-66
2021/04/05 02:52:52;;;;;;;41.55;17.08;;;;;;;3.87;82.60;100898.91;5090619;28;20047;-67
2021/04/05 02:55:18;;;;;;;42.53;18.00;;;;;;;3.87;83.08;100885.84;5090096;28;20035;-67
2021/04/05 02:57:44;;;;;;;49.58;18.80;;;;;;;3.83;83.86;100879.63;5090324;28;20501;-67
2021/04/05 03:00:15;;;;;;;43.83;20.70;;;;;;;3.83;84.58;100869.19;5090530;28;20130;-66
2021/04/05 03:02:45;;;;;;;49.38;20.75;;;;;;;3.80;85.38;100866.47;5090172;28;20093;-66
2021/04/05 03:05:12;;;;;;;41.53;18.77;;;;;;;3.79;85.98;100866.41;5106279;27;20042;-65
2021/04/05 03:07:37;;;;;;;47.20;19.67;;;;;;;3.78;85.64;100857.66;5134276;27;20061;-66
2021/04/05 03:10:05;;;;;;;42.67;18.45;;;;;;;3.75;86.01;100869.78;5133336;27;20043;-67
2021/04/05 03:12:32;;;;;;;46.70;20.52;;;;;;;3.69;86.41;100865.22;5133209;27;20366;-67
2021/04/05 03:14:58;;;;;;;50.92;19.15;;;;;;;3.68;86.81;100847.75;5133306;27;20026;-66
2021/04/05 03:17:24;;;;;;;48.03;21.13;;;;;;;3.61;87.60;100851.91;5133951;27;20019;-67
2021/04/05 03:19:51;;;;;;;45.00;18.98;;;;;;;3.58;89.04;100841.34;5133543;27;20377;-67
2021/04/05 03:22:18;;;;;;;44.10;19.73;;;;;;;3.56;89.86;100834.28;5133467;27;20032;-67
2021/04/05 03:24:44;;;;;;;49.70;21.20;;;;;;;3.56;90.35;100831.69;5132996;27;20019;-66
2021/04/05 03:27:10;;;;;;;48.60;20.52;;;;;;;3.54;90.01;100818.56;5133551;27;20207;-66
2021/04/05 03:29:38;;;;;;;49.15;20.95;;;;;;;3.54;91.04;100822.88;5133293;27;20019;-66
2021/04/05 03:32:05;;;;;;;47.20;20.50;;;;;;;3.53;91.78;100810.66;5133025;27;20034;-67
2021/04/05 03:34:34;;;;;;;46.95;19.92;;;;;;;3.56;92.13;100808.16;5133230;27;20026;-66
2021/04/05 03:37:13;;;;;;;51.40;21.17;;;;;;;3.62;92.28;100800.50;5130936;27;20019;-66
2021/04/05 03:39:38;;;;;;;53.42;24.08;;;;;;;3.62;93.42;100795.28;5133119;27;20026;-66
2021/04/05 03:42:34;;;;;;;48.78;22.67;;;;;;;3.63;93.66;100792.72;5132941;27;20469;-66
2021/04/05 03:45:17;;;;;;;53.50;24.60;;;;;;;3.67;95.11;100793.72;5131436;27;20019;-67
2021/04/05 03:48:01;;;;;;;;;;;;;;;3.73;92.39;100780.81;5132030;27;20359;-67
2021/04/05 03:51:00;;;;;;;52.83;24.00;;;;;;;3.77;93.99;100785.31;5131137;27;19911;-66
2021/04/05 03:53:31;;;;;;;53.25;24.85;;;;;;;3.81;94.36;100775.81;5131397;27;20366;-67
2021/04/05 03:56:01;;;;;;;51.80;24.92;;;;;;;3.90;94.36;100770.84;5132564;27;20095;-66
2021/04/05 03:58:31;;;;;;;52.53;22.20;;;;;;;3.95;92.80;100763.16;5131577;27;20023;-67
2021/04/05 04:01:02;;;;;;;54.28;24.60;;;;;;;3.97;93.03;100757.13;5131713;27;20035;-66
2021/04/05 04:03:41;;;;;;;47.85;21.42;;;;;;;4.03;93.35;100755.53;5131407;27;20027;-66
2021/04/05 04:06:07;;;;;;;52.42;23.63;;;;;;;4.04;94.13;100747.75;5132212;27;20026;-67
2021/04/05 04:08:39;;;;;;;58.50;26.33;;;;;;;4.07;93.78;100755.66;5132979;27;20027;-67
2021/04/05 04:11:08;;;;;;;51.80;24.77;;;;;;;4.13;93.19;100753.22;5132636;27;20027;-67
2021/04/05 04:13:39;;;;;;;54.38;22.15;;;;;;;4.15;93.06;100743.72;5131893;27;21252;-67
2021/04/05 04:16:08;;;;;;;55.58;25.65;;;;;;;4.21;93.13;100739.47;5131128;27;20027;-67
2021/04/05 04:18:33;;;;;;;52.20;24.10;;;;;;;4.22;94.46;100738.66;5133108;27;20029;-67
2021/04/05 04:20:59;;;;;;;58.85;26.55;;;;;;;4.22;94.81;100736.91;5131948;27;20397;-67
2021/04/05 04:23:26;;;;;;;57.67;25.60;;;;;;;4.24;95.29;100734.31;5132810;27;20138;-67
2021/04/05 04:25:53;;;;;;;52.72;23.75;;;;;;;4.26;94.73;100728.31;5130989;27;20038;-67
2021/04/05 04:28:18;;;;;;;53.85;26.00;;;;;;;4.31;94.51;100725.81;5131562;27;20031;-67
2021/04/05 04:30:43;;;;;;;56.20;25.77;;;;;;;4.33;94.54;100713.66;5129134;27;20035;-67
2021/04/05 04:33:10;;;;;;;56.10;26.30;;;;;;;4.37;94.78;100715.53;5131699;27;20023;-67
2021/04/05 04:35:37;;;;;;;56.85;26.92;;;;;;;4.39;94.49;100719.06;5131312;27;20051;-67
2021/04/05 04:38:04;;;;;;;55.67;25.17;;;;;;;4.39;95.12;100716.44;5132245;27;20051;-67
2021/04/05 04:40:31;;;;;;;58.28;27.13;;;;;;;4.41;95.01;100714.75;5132284;27;20389;-67
2021/04/05 04:42:59;;;;;;;57.58;28.38;;;;;;;4.43;95.64;100707.84;5130333;28;20023;-67
2021/04/05 04:45:25;;;;;;;60.92;27.73;;;;;;;4.45;95.31;100697.41;5132161;27;20419;-67
2021/04/05 04:47:52;;;;;;;56.80;26.52;;;;;;;4.48;95.25;100692.25;5132184;27;20019;-67
2021/04/05 04:50:19;;;;;;;58.45;26.50;;;;;;;4.57;94.22;100696.84;5130654;28;20023;-67
2021/04/05 04:52:44;;;;;;;54.67;25.48;;;;;;;4.57;94.29;100686.38;5131948;27;20470;-67
2021/04/05 04:55:12;;;;;;;59.47;28.25;;;;;;;4.57;95.73;100691.59;5131292;27;20083;-66
2021/04/05 04:57:38;;;;;;;56.25;26.20;;;;;;;4.58;95.11;100680.31;5132214;27;20051;-67
2021/04/05 05:00:06;;;;;;;57.00;26.45;;;;;;;4.61;94.78;100672.53;5130725;28;20061;-67
2021/04/05 05:02:34;;;;;;;60.72;27.85;;;;;;;4.60;95.47;100671.66;5132063;27;20031;-67
2021/04/05 05:05:00;;;;;;;57.60;27.92;;;;;;;4.61;96.05;100668.16;5134401;27;20034;-67
2021/04/05 05:07:27;;;;;;;64.35;28.88;;;;;;;4.67;96.48;100664.81;5135693;27;20031;-67
2021/04/05 05:09:53;;;;;;;56.15;27.77;;;;;;;4.68;96.15;100663.97;5136003;27;20106;-67
2021/04/05 05:12:18;;;;;;;59.80;27.58;;;;;;;4.70;96.21;100657.03;5136029;27;20050;-67
2021/04/05 05:14:46;;;;;;;59.08;27.63;;;;;;;4.74;95.39;100652.78;5136924;27;20027;-67
2021/04/05 05:17:12;;;;;;;54.60;24.75;;;;;;;4.82;95.52;100651.22;5136078;27;20457;-66
2021/04/05 05:19:39;;;;;;;55.53;26.92;;;;;;;4.85;95.39;100636.47;5135937;27;20043;-67
2021/04/05 05:22:05;;;;;;;56.00;30.42;;;;;;;4.92;95.60;100644.47;5135005;27;20130;-67
2021/04/05 05:24:32;;;;;;;57.33;25.27;;;;;;;4.96;94.82;100644.56;5136120;27;20420;-67
2021/04/05 05:26:58;;;;;;;56.20;27.08;;;;;;;4.99;94.56;100643.78;5135569;27;20023;-66
2021/04/05 05:29:23;;;;;;;59.75;26.40;;;;;;;5.02;94.33;100634.28;5136004;27;20355;-67
2021/04/05 05:31:49;;;;;;;57.70;27.85;;;;;;;5.03;95.12;100629.91;5135744;27;20363;-66
2021/04/05 05:34:16;;;;;;;54.35;26.00;;;;;;;5.03;95.30;100635.16;5135214;27;20390;-67
2021/04/05 05:36:43;;;;;;;55.47;27.33;;;;;;;5.08;95.94;100623.03;5135211;27;20019;-67
2021/04/05 05:39:09;;;;;;;52.90;25.88;;;;;;;5.09;97.00;100624.78;5135781;27;20491;-67
2021/04/05 05:41:40;;;;;;;53.60;26.38;;;;;;;5.12;97.05;100613.50;5135763;27;20088;-67
2021/04/05 05:44:14;;;;;;;58.90;28.73;;;;;;;5.14;97.73;100611.78;5135611;27;20035;-67
2021/04/05 05:46:45;;;;;;;53.03;27.27;;;;;;;5.17;97.41;100614.47;5134016;27;20087;-66
2021/04/05 05:49:16;;;;;;;54.33;27.25;;;;;;;5.21;97.52;100605.84;5135053;27;20062;-66
2021/04/05 05:52:01;;;;;;;52.28;25.80;;;;;;;5.28;97.05;100618.25;5135687;27;20019;-67
2021/04/05 05:55:05;;;;;;;53.63;27.48;;;;;;;5.36;95.50;100600.94;5132807;27;20126;-66
2021/04/05 05:57:34;;;;;;;53.15;25.17;;;;;;;5.38;95.44;100603.59;5135320;27;20488;-67
2021/04/05 05:59:59;;;;;;;47.20;24.77;;;;;;;5.43;94.32;100609.81;5134977;27;20457;-65
2021/04/05 06:03:04;;;;;;;50.90;25.27;;;;;;;5.44;94.41;100598.47;5134550;27;20027;-67
2021/04/05 06:05:47;;;;;;;53.20;26.35;;;;;;;5.48;93.69;100600.31;5133807;27;20407;-67
2021/04/05 06:08:16;;;;;;;52.75;25.58;;;;;;;5.50;93.46;100588.13;5133473;27;20519;-67
2021/04/05 06:10:49;;;;;;;51.92;25.08;;;;;;;5.51;93.63;100591.66;5135131;27;20031;-67
2021/04/05 06:13:23;;;;;;;;;;;;;;;5.52;92.87;100589.06;5135329;27;20020;-67
2021/04/05 06:16:14;;;;;;;50.35;22.33;;;;;;;5.53;93.01;100582.06;5132674;27;19912;-67
2021/04/05 06:18:57;;;;;;;54.58;26.90;;;;;;;5.46;94.25;100574.91;5133864;27;20067;-67
2021/04/05 06:21:47;;;;;;;51.78;25.17;;;;;;;5.33;97.24;100579.91;5128233;27;20059;-67
2021/04/05 06:24:34;;;;;;;52.40;25.40;;;;;;;5.28;100.00;100578.03;5132342;27;20110;-67
2021/04/05 06:27:20;;;;;;;54.50;29.00;;;;;;;5.34;100.00;100602.63;5132692;27;20038;-66
2021/04/05 06:30:02;;;;;;;49.05;21.20;;;;;;;5.27;100.00;100647.94;5132202;27;20023;-67
2021/04/05 06:32:48;;;;;;;31.83;11.52;;;;;;;5.07;94.60;100652.72;5134900;27;20023;-67
2021/04/05 06:35:35;;;;;;;17.73;3.88;;;;;;;4.84;88.96;100678.34;5133946;27;20050;-67
2021/04/05 06:38:15;;;;;;;13.75;3.00;;;;;;;4.67;87.34;100668.31;5133698;27;20035;-68
2021/04/05 06:40:43;;;;;;;15.52;3.30;;;;;;;4.51;87.93;100661.81;5134128;27;20125;-67
2021/04/05 06:43:27;;;;;;;15.35;3.25;;;;;;;4.33;88.84;100674.41;5133871;27;20059;-67
2021/04/05 06:46:24;;;;;;;16.45;3.85;;;;;;;4.37;90.32;100668.41;5131446;27;20050;-67
2021/04/05 06:49:02;;;;;;;18.08;4.43;;;;;;;4.21;90.94;100661.88;5065250;28;20050;-67
2021/04/05 06:52:05;;;;;;;21.20;4.82;;;;;;;4.08;95.18;100675.44;5066296;28;20037;-67
2021/04/05 06:55:08;;;;;;;19.65;5.18;;;;;;;3.98;96.50;100674.31;5064957;28;20107;-66
2021/04/05 06:58:10;;;;;;;20.42;5.45;;;;;;;4.05;95.58;100673.66;5068863;28;20119;-66
2021/04/05 07:00:49;;;;;;;21.70;6.80;;;;;;;3.95;97.86;100664.66;5060776;28;20391;-63
2021/04/05 07:03:27;;;;;;;21.98;5.25;;;;;;;4.00;95.99;100668.31;5066141;28;20375;-65
2021/04/05 07:06:16;;;;;;;21.63;6.70;;;;;;;4.17;93.91;100660.91;5064900;28;20044;-67
2021/04/05 07:08:53;;;;;;;20.17;5.25;;;;;;;3.99;94.01;100679.59;5065677;28;20111;-63
2021/04/05 07:11:59;;;;;;;17.23;5.03;;;;;;;3.97;91.37;100683.88;5066572;28;20511;-65
2021/04/05 07:14:47;;;;;;;21.25;4.82;;;;;;;3.89;91.97;100687.13;5065035;28;20556;-64
2021/04/05 07:17:45;;;;;;;14.35;3.35;;;;;;;3.93;89.76;100687.28;5065866;28;20540;-65
2021/04/05 07:20:56;;;;;;;15.13;3.08;;;;;;;3.93;89.03;100696.81;5067850;28;20111;-66
2021/04/05 07:23:24;;;;;;;19.25;3.60;;;;;;;3.90;88.37;100686.28;5066851;27;20048;-66
2021/04/05 07:26:17;;;;;;;16.52;2.92;;;;;;;3.91;89.87;100706.38;5133274;27;20375;-66
2021/04/05 07:28:55;;;;;;;16.73;3.15;;;;;;;4.00;88.48;100709.25;5132853;27;20470;-66
2021/04/05 07:31:37;;;;;;;14.63;2.90;;;;;;;4.01;87.96;100705.78;5133318;27;20023;-65
2021/04/05 07:34:37;;;;;;;20.73;3.28;;;;;;;3.77;92.31;100724.25;5131067;27;20023;-66
2021/04/05 07:37:24;;;;;;;20.35;3.40;;;;;;;3.77;94.19;100726.88;5089342;28;20090;-62
2021/04/05 07:40:00;;;;;;;14.68;2.72;;;;;;;3.99;89.16;100737.16;5089634;28;20032;-66
2021/04/05 07:42:55;;;;;;;18.75;3.20;;;;;;;4.04;88.47;100745.13;5090269;28;20123;-65
2021/04/05 07:45:29;;;;;;;14.43;3.10;;;;;;;3.97;88.24;100751.00;5089281;28;20032;-66
2021/04/05 07:48:08;;;;;;;12.07;2.90;;;;;;;3.87;87.08;100742.00;5087059;28;20040;-65
2021/04/05 07:50:44;;;;;;;10.13;2.50;;;;;;;3.86;86.53;100775.94;5089013;28;20474;-66
2021/04/05 07:53:21;;;;;;;18.05;2.90;;;;;;;3.86;86.33;100791.63;5089139;28;20114;-67
2021/04/05 07:55:48;;;;;;;14.10;2.65;;;;;;;3.46;88.06;100797.38;5089751;28;20618;-66
2021/04/05 07:58:41;;;;;;;17.63;2.83;;;;;;;3.57;84.87;100792.50;5089775;28;20054;-66
2021/04/05 08:01:22;;;;;;;12.15;2.50;;;;;;;3.49;85.80;100791.38;5088107;28;20126;-67
2021/04/05 08:04:00;;;;;;;11.90;2.33;;;;;;;3.38;86.01;100814.56;5087420;28;20068;-66
2021/04/05 08:06:35;;;;;;;14.48;2.40;;;;;;;3.23;87.08;100821.88;5088638;28;20028;-66
2021/04/05 08:09:06;;;;;;;17.05;2.72;;;;;;;3.28;86.64;100830.75;5089645;28;20039;-67
2021/04/05 08:11:32;;;;;;;17.63;2.47;;;;;;;3.34;83.03;100832.69;5089856;28;20510;-66
2021/04/05 08:14:20;;;;;;;16.42;2.80;;;;;;;3.45;81.62;100844.38;5111387;27;20118;-66
2021/04/05 08:16:58;;;;;;;19.88;2.65;;;;;;;3.38;79.79;100858.06;5130388;27;20033;-67
2021/04/05 08:19:48;;;;;;;16.52;2.80;;;;;;;3.27;78.99;100862.94;5129385;27;20031;-68
2021/04/05 08:22:19;;;;;;;18.20;2.72;;;;;;;3.32;77.03;100877.06;5130932;27;20047;-69
2021/04/05 08:24:50;;;;;;;18.58;3.03;;;;;;;3.29;76.14;100880.47;5128608;27;20363;-67
2021/04/05 08:27:38;;;;;;;23.48;2.97;;;;;;;3.30;77.64;100895.28;5130095;27;20060;-66
2021/04/05 08:30:10;;;;;;;22.48;3.53;;;;;;;3.45;75.78;100889.72;5119703;27;20079;-66
2021/04/05 08:33:14;;;;;;;23.23;3.53;;;;;;;3.63;77.15;100885.94;5129889;27;20525;-66
2021/04/05 08:35:44;;;;;;;25.23;3.60;;;;;;;3.76;74.94;100898.59;5086975;28;20066;-66
2021/04/05 08:38:36;;;;;;;21.13;3.40;;;;;;;3.75;74.53;100914.22;5083605;28;20036;-66
2021/04/05 08:41:29;;;;;;;19.75;3.10;;;;;;;3.70;73.92;100923.63;5089068;28;20494;-63
2021/04/05 08:44:17;;;;;;;24.63;4.18;;;;;;;3.53;75.20;100926.56;5088228;28;20093;-63
2021/04/05 08:46:45;;;;;;;22.70;4.45;;;;;;;3.54;72.96;100937.91;5087110;28;20130;-63
2021/04/05 08:49:16;;;;;;;21.73;3.40;;;;;;;3.55;71.02;100930.09;5087825;28;20036;-63
2021/04/05 08:51:46;;;;;;;20.63;3.40;;;;;;;3.60;70.60;100930.28;5089126;28;20028;-63
2021/04/05 08:54:18;;;;;;;21.25;3.60;;;;;;;3.66;70.62;100938.34;5088849;28;21450;-65
2021/04/05 08:56:46;;;;;;;24.23;3.78;;;;;;;3.87;69.53;100932.91;5088446;28;20490;-64
2021/04/05 08:59:22;;;;;;;20.90;3.60;;;;;;;4.04;70.93;100925.63;5089108;28;20125;-66
2021/04/05 09:01:54;;;;;;;18.05;3.33;;;;;;;4.18;67.36;100928.72;5088213;28;20081;-64
2021/04/05 09:04:23;;;;;;;23.92;3.90;;;;;;;4.11;68.79;100930.22;5088373;28;20100;-67
2021/04/05 09:07:12;;;;;;;23.13;3.42;;;;;;;4.07;68.33;100922.25;5071369;28;20046;-67
2021/04/05 09:09:39;;;;;;;21.95;3.25;;;;;;;4.01;68.33;100933.38;5087991;28;20077;-66
2021/04/05 09:12:06;;;;;;;20.88;3.00;;;;;;;3.99;67.97;100935.97;5098455;28;20039;-67
2021/04/05 09:14:46;;;;;;;17.95;3.25;;;;;;;3.87;67.71;100947.75;5132095;28;20052;-68
2021/04/05 09:17:24;;;;;;;21.75;3.30;;;;;;;3.33;71.16;100982.47;5129539;28;20029;-66
2021/04/05 09:20:18;;;;;;;18.85;2.83;;;;;;;3.08;71.87;100953.72;5131937;27;20114;-66
2021/04/05 09:23:14;;;;;;;13.73;2.50;;;;;;;3.34;69.81;100953.78;5130919;28;20048;-65
2021/04/05 09:26:01;;;;;;;17.67;2.65;;;;;;;3.79;68.59;100945.75;5131476;28;20035;-66
2021/04/05 09:28:49;;;;;;;8.68;1.90;;;;;;;4.32;65.73;100950.06;5131704;28;20031;-66
2021/04/05 09:31:51;;;;;;;11.75;2.28;;;;;;;4.51;64.30;100955.06;5066848;28;20050;-69
2021/04/05 09:34:22;;;;;;;17.15;2.80;;;;;;;4.86;64.12;100959.56;5008300;28;20041;-68
2021/04/05 09:37:08;;;;;;;14.77;2.38;;;;;;;5.02;62.90;100934.69;5008142;28;20048;-68
2021/04/05 09:40:25;;;;;;;16.77;2.72;;;;;;;5.43;62.34;100945.41;5006366;28;20163;-67
2021/04/05 09:43:11;;;;;;;12.88;2.58;;;;;;;5.13;61.12;100963.84;4988327;28;20035;-68
2021/04/05 09:45:44;;;;;;;17.23;2.45;;;;;;;4.77;62.42;100982.84;4983296;28;20064;-66
2021/04/05 09:48:23;;;;;;;13.02;2.53;;;;;;;4.69;62.35;100980.03;4981718;28;20045;-66
2021/04/05 09:51:10;;;;;;;12.98;2.60;;;;;;;4.89;62.66;101004.16;4990619;28;20026;-66
2021/04/05 09:54:07;;;;;;;11.98;2.50;;;;;;;5.11;61.48;100999.56;4990674;28;20121;-66
2021/04/05 09:56:41;;;;;;;12.18;2.60;;;;;;;5.49;61.65;100997.13;4985886;28;20547;-66
2021/04/05 09:59:10;;;;;;;13.55;2.88;;;;;;;5.56;59.27;101017.44;4987584;28;20061;-63
2021/04/05 10:01:37;;;;;;;15.00;3.20;;;;;;;5.11;59.96;101031.03;4985400;28;20401;-64
2021/04/05 10:04:06;;;;;;;13.90;3.20;;;;;;;4.65;62.67;101054.97;4986433;28;20034;-63
2021/04/05 10:06:35;;;;;;;9.82;2.50;;;;;;;4.43;62.07;101026.34;4990664;28;20085;-64
2021/04/05 10:09:03;;;;;;;11.18;2.83;;;;;;;4.36;61.07;101026.09;5003399;28;20068;-63
2021/04/05 10:11:32;;;;;;;10.35;2.60;;;;;;;4.44;57.87;101035.94;5032245;28;20037;-66
2021/04/05 10:14:04;;;;;;;10.85;2.40;;;;;;;4.79;58.46;101026.59;5048525;28;20048;-66
2021/04/05 10:16:32;;;;;;;13.00;2.60;;;;;;;5.28;55.94;101035.03;5051448;28;20083;-64
2021/04/05 10:19:09;;;;;;;8.77;2.10;;;;;;;5.61;54.67;101044.69;5121917;27;20080;-64
2021/04/05 10:21:40;;;;;;;12.32;2.25;;;;;;;5.91;55.41;101039.41;5134208;27;20093;-64
2021/04/05 10:24:07;;;;;;;13.32;2.13;;;;;;;6.25;52.68;101061.31;5134372;27;20076;-64
2021/04/05 10:26:34;;;;;;;17.33;2.35;;;;;;;6.45;50.63;101046.06;5134517;27;20084;-63
2021/04/05 10:29:03;;;;;;;16.08;2.80;;;;;;;6.51;50.39;101052.28;5134942;27;20025;-64
2021/04/05 10:31:30;;;;;;;15.48;2.60;;;;;;;6.58;51.49;101055.13;5134986;27;20031;-65
2021/04/05 10:34:07;;;;;;;10.25;1.98;;;;;;;6.44;50.56;101043.38;5133391;27;20023;-64
2021/04/05 10:36:48;;;;;;;12.70;2.33;;;;;;;6.39;51.22;101047.63;5131061;27;20461;-64
2021/04/05 10:39:14;;;;;;;17.73;2.58;;;;;;;6.40;49.39;101044.16;5133638;27;20023;-64
2021/04/05 10:41:55;;;;;;;15.90;2.60;;;;;;;6.60;50.01;101029.75;5134546;27;20069;-65
2021/04/05 10:44:23;;;;;;;14.32;2.60;;;;;;;6.60;48.79;100990.34;5135154;27;20110;-67
2021/04/05 10:46:55;;;;;;;18.30;3.25;;;;;;;6.35;45.87;101030.00;5133680;27;20432;-65
2021/04/05 10:49:27;;;;;;;12.73;2.72;;;;;;;6.14;46.55;101043.50;5134073;27;20027;-65
2021/04/05 10:52:11;;;;;;;13.77;2.78;;;;;;;6.49;44.56;101038.25;5133758;27;20351;-64
2021/04/05 10:54:40;;;;;;;15.35;2.40;;;;;;;6.71;44.08;101044.88;5134093;27;20019;-64
2021/04/05 10:57:10;;;;;;;16.00;2.58;;;;;;;6.93;43.82;101020.88;5133656;27;20019;-66
2021/04/05 10:59:48;;;;;;;16.70;2.90;;;;;;;6.63;41.15;101032.47;5134262;27;20050;-64
2021/04/05 11:02:37;;;;;;;17.63;2.65;;;;;;;6.56;42.62;101051.53;5132227;27;20019;-64
2021/04/05 11:05:05;;;;;;;15.15;2.70;;;;;;;6.72;43.30;101041.41;5132458;27;20115;-67
2021/04/05 11:07:31;;;;;;;16.73;2.80;;;;;;;6.86;42.35;101047.88;5133576;27;20038;-65
2021/04/05 11:10:00;;;;;;;14.23;2.42;;;;;;;6.73;42.02;101043.19;5134044;27;20023;-64
2021/04/05 11:12:49;;;;;;;16.30;2.85;;;;;;;7.23;42.04;101051.31;5131840;27;20023;-64
2021/04/05 11:15:19;;;;;;;16.20;2.72;;;;;;;7.60;39.40;101066.97;5133253;27;20393;-66
2021/04/05 11:17:48;;;;;;;16.70;2.50;;;;;;;7.92;38.50;101056.16;5132829;27;20477;-66
2021/04/05 11:20:17;;;;;;;10.70;2.20;;;;;;;7.85;37.89;101070.97;5133517;27;20042;-66
2021/04/05 11:22:44;;;;;;;13.70;2.47;;;;;;;8.52;36.99;101066.03;5133302;27;20031;-66
2021/04/05 11:25:17;;;;;;;12.55;2.33;;;;;;;9.54;35.31;101087.72;5133084;27;20423;-65
2021/04/05 11:27:47;;;;;;;15.60;2.50;;;;;;;9.53;35.34;101094.72;5133934;27;20020;-67
2021/04/05 11:30:23;;;;;;;11.40;2.10;;;;;;;8.92;35.62;101089.50;5133257;27;20038;-67
2021/04/05 11:32:50;;;;;;;16.75;2.30;;;;;;;9.21;33.17;101086.41;5132561;27;20093;-68
2021/04/05 11:35:16;;;;;;;14.82;2.30;;;;;;;10.73;29.88;101103.03;5132798;27;20074;-71
2021/04/05 11:37:43;;;;;;;16.60;2.40;;;;;;;11.41;29.13;101084.94;5133665;27;20104;-68
2021/04/05 11:40:12;;;;;;;12.95;2.30;;;;;;;11.19;29.46;101086.59;5132920;27;20030;-68
2021/04/05 11:42:43;;;;;;;14.57;2.55;;;;;;;9.42;31.30;101084.06;5131195;27;20023;-69
2021/04/05 11:45:13;;;;;;;12.90;2.08;;;;;;;8.12;34.29;101102.19;5130447;27;20377;-66
2021/04/05 11:47:44;;;;;;;14.48;2.25;;;;;;;7.49;36.80;101099.19;5126631;27;20031;-67
2021/04/05 11:50:18;;;;;;;13.07;2.15;;;;;;;6.04;41.64;101132.50;5131397;27;20418;-68
2021/04/05 11:52:43;;;;;;;12.85;2.20;;;;;;;6.60;41.23;101132.22;5133146;27;20019;-68